Time;durP1;ratioP1;P1;durP2;ratioP2;P2;SDS_P1;SDS_P2;PMS_P1;PMS_P2;Temp;Humidity;BMP_temperature;BMP_pressure;BME280_temperature;BME280_humidity;BME280_pressure;Samples;Min_cycle;Max_cycle;Signal;HPM_P1;HPM_P2
2021/11/27 00:02:23;;;;;;;8.60;2.60;;;4.10;98.00;;;;;;5051868;28;20041;-66
2021/11/27 00:04:51;;;;;;;8.13;2.40;;;4.10;98.30;;;;;;5050344;28;20084;-65
2021/11/27 00:07:17;;;;;;;9.30;3.25;;;4.10;98.00;;;;;;5050612;28;20131;-65
2021/11/27 00:09:44;;;;;;;7.90;4.45;;;4.20;98.10;;;;;;5050474;28;20124;-66
2021/11/27 00:12:11;;;;;;;43.80;26.33;;;4.20;98.60;;;;;;5052041;28;20097;-69
2021/11/27 00:14:38;;;;;;;30.98;15.10;;;4.20;99.00;;;;;;5049531;28;20057;-66
2021/11/27 00:17:05;;;;;;;9.43;4.78;;;4.20;99.00;;;;;;5033340;28;20484;-65
2021/11/27 00:19:32;;;;;;;8.98;2.40;;;4.20;99.80;;;;;;5050912;28;20129;-67
2021/11/27 00:21:59;;;;;;;12.40;2.67;;;4.10;99.90;;;;;;5042462;28;20080;-66
2021/11/27 00:24:26;;;;;;;4.03;1.77;;;4.10;99.90;;;;;;5050377;28;20056;-66
2021/11/27 00:26:53;;;;;;;4.05;1.65;;;4.00;99.90;;;;;;5052098;28;20051;-67
2021/11/27 00:29:22;;;;;;;8.70;2.65;;;4.00;99.90;;;;;;5050533;28;20072;-66
2021/11/27 00:31:50;;;;;;;66.25;38.63;;;4.00;99.90;;;;;;5014877;28;20141;-68
2021/11/27 00:34:17;;;;;;;48.10;24.17;;;4.00;99.90;;;;;;5036340;28;20053;-64
2021/11/27 00:36:44;;;;;;;6.47;2.60;;;3.90;99.90;;;;;;5050263;28;20088;-65
2021/11/27 00:39:11;;;;;;;6.13;2.20;;;3.90;99.90;;;;;;5050614;28;20068;-68
2021/11/27 00:41:38;;;;;;;5.90;2.30;;;3.90;99.90;;;;;;5032931;28;20053;-67
2021/11/27 00:44:05;;;;;;;7.60;2.75;;;3.90;99.90;;;;;;5049090;28;20492;-67
2021/11/27 00:46:33;;;;;;;4.20;1.80;;;3.80;99.90;;;;;;5046607;28;20064;-68
2021/11/27 00:49:00;;;;;;;7.93;2.13;;;3.80;99.90;;;;;;5025381;28;20496;-68
2021/11/27 00:51:27;;;;;;;5.80;1.45;;;3.80;99.90;;;;;;5049404;28;20052;-67
2021/11/27 00:53:54;;;;;;;6.35;1.92;;;3.80;99.90;;;;;;5049937;28;20821;-67
2021/11/27 00:56:21;;;;;;;4.88;1.50;;;3.80;99.90;;;;;;5032975;28;20044;-68
2021/11/27 00:58:48;;;;;;;12.52;2.33;;;3.70;99.90;;;;;;5049369;28;20045;-67
2021/11/27 01:01:19;;;;;;;5.97;1.65;;;3.70;99.90;;;;;;5049821;28;20570;-69
2021/11/27 01:03:46;;;;;;;6.07;1.30;;;3.70;99.90;;;;;;5033036;28;20075;-67
2021/11/27 01:06:14;;;;;;;7.38;2.25;;;3.70;99.90;;;;;;5048685;28;20128;-68
2021/11/27 01:08:41;;;;;;;3.63;1.90;;;3.70;99.90;;;;;;5049841;28;20071;-68
2021/11/27 01:11:20;;;;;;;2.40;1.63;;;3.70;99.90;;;;;;5048985;28;20124;-67
2021/11/27 01:13:50;;;;;;;7.40;1.80;;;3.70;99.90;;;;;;5050162;28;20053;-67
2021/11/27 01:16:18;;;;;;;5.82;2.92;;;3.70;99.90;;;;;;5034880;28;20434;-68
2021/11/27 01:18:46;;;;;;;10.85;2.40;;;3.70;99.90;;;;;;5049502;28;20045;-68
2021/11/27 01:21:15;;;;;;;4.32;1.77;;;3.70;99.90;;;;;;5049264;28;20094;-68
2021/11/27 01:23:42;;;;;;;6.22;2.35;;;3.70;99.90;;;;;;5048905;28;20147;-67
2021/11/27 01:26:09;;;;;;;4.22;1.50;;;3.70;99.90;;;;;;5049857;28;20079;-69
2021/11/27 01:28:36;;;;;;;9.48;2.58;;;3.70;99.90;;;;;;5049557;28;20060;-66
2021/11/27 01:31:04;;;;;;;3.28;1.70;;;3.70;99.90;;;;;;5032281;28;20151;-66
2021/11/27 01:33:32;;;;;;;7.63;2.43;;;3.70;99.90;;;;;;5049476;28;20091;-66
2021/11/27 01:36:00;;;;;;;2.75;1.83;;;3.70;99.90;;;;;;5029829;28;20492;-67
2021/11/27 01:38:27;;;;;;;6.88;2.10;;;3.70;99.90;;;;;;5050687;28;20476;-67
2021/11/27 01:40:54;;;;;;;5.38;1.95;;;3.60;99.90;;;;;;5048949;28;20041;-66
2021/11/27 01:43:21;;;;;;;2.25;1.10;;;3.60;99.90;;;;;;5031319;28;20484;-67
2021/11/27 01:45:49;;;;;;;1.73;1.10;;;3.50;99.90;;;;;;5049402;28;20049;-67
2021/11/27 01:48:17;;;;;;;4.18;1.42;;;3.50;99.90;;;;;;5033427;28;20092;-67
2021/11/27 01:51:00;;;;;;;4.75;1.40;;;3.50;99.90;;;;;;5049011;28;20059;-67
2021/11/27 01:53:29;;;;;;;3.83;1.98;;;3.50;99.90;;;;;;5048875;28;20404;-67
2021/11/27 01:56:00;;;;;;;3.67;1.10;;;3.50;99.90;;;;;;5028627;28;20068;-68
2021/11/27 01:58:28;;;;;;;3.00;1.38;;;3.50;99.90;;;;;;5047762;28;20049;-67
2021/11/27 02:01:00;;;;;;;2.47;1.00;;;3.50;99.90;;;;;;5046675;28;20394;-68
2021/11/27 02:03:29;;;;;;;4.53;1.20;;;3.50;99.90;;;;;;5048666;28;20095;-67
2021/11/27 02:05:56;;;;;;;3.05;1.00;;;3.50;99.90;;;;;;5031336;28;20079;-67
2021/11/27 02:08:24;;;;;;;3.33;0.90;;;3.50;99.90;;;;;;5049896;28;20045;-67
2021/11/27 02:10:51;;;;;;;3.08;0.80;;;3.50;99.90;;;;;;5048688;28;20447;-68
2021/11/27 02:13:18;;;;;;;0.82;0.60;;;3.50;99.90;;;;;;5031373;28;20560;-67
2021/11/27 02:15:45;;;;;;;1.67;0.98;;;3.50;99.90;;;;;;5048936;28;20470;-68
2021/11/27 02:18:12;;;;;;;2.70;2.00;;;3.50;99.90;;;;;;5049161;28;20045;-68
2021/11/27 02:20:40;;;;;;;1.55;0.90;;;3.50;99.90;;;;;;5049477;28;20144;-68
2021/11/27 02:23:07;;;;;;;1.38;0.90;;;3.50;99.90;;;;;;5031019;28;20465;-67
2021/11/27 02:25:34;;;;;;;1.92;0.80;;;3.50;99.90;;;;;;5029812;28;20420;-69
2021/11/27 02:28:01;;;;;;;3.88;1.33;;;3.50;99.90;;;;;;5048649;28;20472;-67
2021/11/27 02:30:28;;;;;;;1.00;0.80;;;3.50;99.90;;;;;;5048960;28;20102;-68
2021/11/27 02:32:55;;;;;;;2.67;1.20;;;3.50;99.90;;;;;;5048513;28;20128;-67
2021/11/27 02:35:22;;;;;;;1.42;1.10;;;3.50;99.90;;;;;;5049639;28;20132;-68
2021/11/27 02:37:49;;;;;;;2.13;0.98;;;3.60;99.90;;;;;;5049167;28;20041;-68
2021/11/27 02:40:16;;;;;;;2.63;1.10;;;3.60;99.90;;;;;;5052890;28;20049;-66
2021/11/27 02:42:43;;;;;;;2.05;0.93;;;3.60;99.90;;;;;;5051923;28;20045;-67
2021/11/27 02:45:10;;;;;;;1.67;1.30;;;3.60;99.90;;;;;;5053784;28;20124;-67
2021/11/27 02:47:38;;;;;;;2.92;1.35;;;3.70;99.90;;;;;;5051925;28;20055;-67
2021/11/27 02:50:06;;;;;;;3.63;1.50;;;3.70;99.90;;;;;;5029201;28;20434;-67
2021/11/27 02:52:34;;;;;;;2.00;1.10;;;3.70;99.90;;;;;;5045258;28;20056;-68
2021/11/27 02:55:01;;;;;;;2.20;1.20;;;3.70;99.90;;;;;;5051861;28;20088;-67
2021/11/27 02:57:29;;;;;;;3.08;1.60;;;3.70;99.90;;;;;;5051790;28;20072;-67
2021/11/27 02:59:56;;;;;;;3.35;1.30;;;3.70;99.90;;;;;;5051507;28;20456;-67
2021/11/27 03:02:23;;;;;;;1.70;1.50;;;3.70;99.90;;;;;;5050885;28;20435;-66
2021/11/27 03:04:50;;;;;;;2.17;1.23;;;3.80;99.90;;;;;;5052733;28;20040;-66
2021/11/27 03:07:17;;;;;;;1.67;1.27;;;3.70;99.90;;;;;;5052088;28;20091;-67
2021/11/27 03:09:44;;;;;;;1.90;1.30;;;3.70;99.90;;;;;;5051428;28;20066;-68
2021/11/27 03:12:11;;;;;;;2.20;1.58;;;3.70;99.90;;;;;;5052464;28;20117;-67
2021/11/27 03:14:38;;;;;;;2.17;1.80;;;3.70;99.90;;;;;;5051007;28;20072;-67
2021/11/27 03:17:05;;;;;;;2.38;1.85;;;3.70;99.90;;;;;;5043495;28;20111;-68
2021/11/27 03:19:37;;;;;;;4.38;2.70;;;3.70;99.90;;;;;;5050328;28;20128;-67
2021/11/27 03:22:04;;;;;;;2.90;2.38;;;3.60;99.90;;;;;;5035444;28;20044;-67
2021/11/27 03:24:32;;;;;;;2.67;2.03;;;3.70;99.90;;;;;;5052117;28;20475;-66
2021/11/27 03:26:59;;;;;;;2.30;2.03;;;3.60;99.90;;;;;;5051396;28;20052;-67
2021/11/27 03:29:25;;;;;;;3.42;2.20;;;3.60;99.90;;;;;;5051903;28;20106;-68
2021/11/27 03:32:03;;;;;;;2.47;2.05;;;3.60;99.90;;;;;;5030693;28;20511;-66
2021/11/27 03:34:31;;;;;;;4.50;2.25;;;3.50;99.90;;;;;;5048083;28;20049;-67
2021/11/27 03:36:58;;;;;;;2.47;2.00;;;3.40;99.90;;;;;;5051121;28;20049;-67
2021/11/27 03:39:24;;;;;;;2.53;2.08;;;3.30;99.90;;;;;;5050149;28;20045;-68
2021/11/27 03:41:51;;;;;;;3.28;2.17;;;3.30;99.90;;;;;;5030812;28;20049;-67
2021/11/27 03:44:18;;;;;;;3.63;2.20;;;3.20;99.90;;;;;;5037921;28;20128;-67
2021/11/27 03:46:46;;;;;;;2.70;2.05;;;3.20;99.90;;;;;;5051327;28;20511;-67
2021/11/27 03:49:13;;;;;;;2.78;1.98;;;3.10;99.90;;;;;;5050646;28;20049;-67
2021/11/27 03:51:40;;;;;;;2.30;1.88;;;3.10;99.90;;;;;;5025942;28;20072;-67
2021/11/27 03:54:07;;;;;;;4.30;2.90;;;3.00;99.90;;;;;;5050618;28;20053;-67
2021/11/27 03:56:34;;;;;;;3.25;2.47;;;2.90;99.90;;;;;;5050597;28;20049;-66
2021/11/27 03:59:03;;;;;;;2.80;2.42;;;2.90;99.90;;;;;;5049568;28;20048;-67
2021/11/27 04:01:30;;;;;;;3.13;2.45;;;2.80;99.90;;;;;;5050698;28;20095;-67
2021/11/27 04:03:57;;;;;;;4.35;2.70;;;2.80;99.90;;;;;;5052105;28;20045;-66
2021/11/27 04:06:24;;;;;;;3.42;2.80;;;2.80;99.90;;;;;;5049858;28;20095;-66
2021/11/27 04:08:54;;;;;;;3.85;2.92;;;2.80;99.90;;;;;;5055153;28;20071;-67
2021/11/27 04:11:21;;;;;;;3.97;3.45;;;2.80;99.90;;;;;;5049424;28;20052;-67
2021/11/27 04:13:48;;;;;;;7.45;4.10;;;2.70;99.90;;;;;;5050016;28;20373;-67
2021/11/27 04:16:15;;;;;;;4.13;2.83;;;2.70;99.90;;;;;;5032607;28;20068;-67
2021/11/27 04:18:42;;;;;;;4.60;2.97;;;2.60;99.90;;;;;;5051256;28;20056;-67
2021/11/27 04:21:10;;;;;;;4.40;3.38;;;2.50;99.90;;;;;;5050659;28;20495;-68
2021/11/27 04:23:37;;;;;;;4.15;2.72;;;2.40;99.90;;;;;;5050122;28;20080;-67
2021/11/27 04:26:04;;;;;;;3.67;3.28;;;2.40;99.90;;;;;;5050166;28;20045;-67
2021/11/27 04:28:31;;;;;;;3.40;2.78;;;2.40;99.90;;;;;;5050241;28;20151;-67
2021/11/27 04:30:58;;;;;;;4.15;2.53;;;2.40;99.90;;;;;;5049084;28;20052;-69
2021/11/27 04:33:26;;;;;;;5.03;3.17;;;2.40;99.90;;;;;;5050400;28;20060;-67
2021/11/27 04:35:53;;;;;;;45.85;36.60;;;2.40;99.90;;;;;;5049709;28;20044;-70
2021/11/27 04:38:20;;;;;;;5.32;3.90;;;2.50;99.90;;;;;;5049037;28;20112;-72
2021/11/27 04:40:47;;;;;;;3.78;3.15;;;2.60;99.90;;;;;;5050629;28;20053;-70
2021/11/27 04:43:14;;;;;;;3.75;3.00;;;2.50;99.90;;;;;;5049393;28;20049;-70
2021/11/27 04:45:41;;;;;;;4.22;3.35;;;2.60;99.90;;;;;;5048654;28;20090;-70
2021/11/27 04:48:08;;;;;;;4.57;3.00;;;2.60;99.90;;;;;;5049644;28;20480;-70
2021/11/27 04:50:35;;;;;;;3.92;3.38;;;2.50;99.90;;;;;;5049047;28;20049;-70
2021/11/27 04:53:03;;;;;;;3.97;3.40;;;2.50;99.90;;;;;;5048924;28;20048;-70
2021/11/27 04:55:31;;;;;;;5.55;3.70;;;2.50;99.90;;;;;;5033331;28;20057;-70
2021/11/27 04:57:59;;;;;;;5.10;4.13;;;2.50;99.90;;;;;;5015837;28;20445;-70
2021/11/27 05:00:33;;;;;;;5.47;4.28;;;2.50;99.90;;;;;;5048727;28;20114;-71
2021/11/27 05:03:00;;;;;;;7.18;5.13;;;2.40;99.90;;;;;;5046924;28;20076;-70
2021/11/27 05:05:27;;;;;;;6.55;4.90;;;2.40;99.90;;;;;;5049376;28;20072;-70
2021/11/27 05:07:55;;;;;;;10.20;6.03;;;2.40;99.90;;;;;;5050293;28;20156;-69
2021/11/27 05:10:22;;;;;;;8.52;5.05;;;2.50;99.90;;;;;;5016279;28;20094;-69
2021/11/27 05:12:49;;;;;;;9.63;5.55;;;2.60;99.90;;;;;;5032400;28;20040;-70
2021/11/27 05:15:16;;;;;;;7.38;5.82;;;2.60;99.90;;;;;;5032388;28;20053;-70
2021/11/27 05:17:43;;;;;;;6.63;5.25;;;2.70;99.90;;;;;;5049406;28;20048;-70
2021/11/27 05:20:10;;;;;;;7.35;3.95;;;2.70;99.90;;;;;;5048986;28;20460;-70
2021/11/27 05:22:37;;;;;;;5.78;4.30;;;2.80;99.90;;;;;;5047857;28;20057;-70
2021/11/27 05:25:05;;;;;;;5.50;4.47;;;2.80;99.90;;;;;;5049080;28;20049;-69
2021/11/27 05:27:33;;;;;;;4.82;3.60;;;2.80;99.90;;;;;;5005596;28;20393;-69
2021/11/27 05:30:00;;;;;;;4.38;3.50;;;2.80;99.90;;;;;;5047275;28;20492;-71
2021/11/27 05:35:03;;;;;;;6.57;4.25;;;2.70;99.90;;;;;;5049440;28;20061;-69
2021/11/27 05:37:30;;;;;;;5.47;3.78;;;2.70;99.90;;;;;;5049907;28;20044;-72
2021/11/27 05:39:57;;;;;;;5.22;4.22;;;2.70;99.90;;;;;;5048364;28;20796;-70
2021/11/27 05:42:24;;;;;;;4.93;3.85;;;2.70;99.90;;;;;;5029184;28;20053;-71
2021/11/27 05:44:52;;;;;;;4.93;3.72;;;2.70;99.90;;;;;;5042493;28;20048;-70
2021/11/27 05:47:19;;;;;;;5.35;4.30;;;2.60;99.90;;;;;;5047940;28;20412;-70
2021/11/27 05:49:46;;;;;;;5.05;3.65;;;2.60;99.90;;;;;;5030157;28;20045;-69
2021/11/27 05:52:13;;;;;;;5.28;3.63;;;2.60;99.90;;;;;;5049935;28;20061;-70
2021/11/27 05:54:40;;;;;;;5.75;3.78;;;2.60;99.90;;;;;;5048468;28;20056;-70
2021/11/27 05:57:07;;;;;;;6.43;4.30;;;2.60;99.90;;;;;;5048558;28;20396;-71
2021/11/27 05:59:34;;;;;;;6.05;4.03;;;2.60;99.90;;;;;;5031461;28;20048;-70
2021/11/27 06:02:01;;;;;;;5.60;3.60;;;2.60;99.90;;;;;;5047886;28;20089;-70
2021/11/27 06:04:28;;;;;;;5.63;3.60;;;2.70;99.90;;;;;;5049312;28;20071;-70
2021/11/27 06:06:56;;;;;;;6.05;4.25;;;2.70;99.90;;;;;;5048022;28;20092;-71
2021/11/27 06:09:24;;;;;;;5.90;3.80;;;2.70;99.90;;;;;;5048222;28;20485;-71
2021/11/27 06:11:50;;;;;;;8.32;4.38;;;2.70;99.90;;;;;;5048828;28;20049;-71
2021/11/27 06:14:17;;;;;;;6.22;4.47;;;2.70;99.90;;;;;;5050103;28;20523;-70
2021/11/27 06:16:44;;;;;;;9.48;5.55;;;2.70;99.90;;;;;;5054247;28;20048;-71
2021/11/27 06:19:11;;;;;;;6.25;4.43;;;2.80;99.90;;;;;;5055811;28;20061;-71
2021/11/27 06:21:38;;;;;;;7.75;4.40;;;2.80;99.90;;;;;;5054661;28;20041;-71
2021/11/27 06:24:08;;;;;;;9.82;4.90;;;2.80;99.90;;;;;;5055627;28;20124;-71
2021/11/27 06:26:35;;;;;;;6.80;4.28;;;2.80;99.90;;;;;;5053359;28;20041;-71
2021/11/27 06:29:03;;;;;;;8.07;5.28;;;2.80;99.90;;;;;;5055355;28;20047;-70
2021/11/27 06:31:30;;;;;;;7.35;4.60;;;2.80;99.90;;;;;;5053329;28;20053;-71
2021/11/27 06:33:57;;;;;;;4.90;3.67;;;2.80;99.90;;;;;;5054805;28;20451;-70
2021/11/27 06:36:29;;;;;;;6.57;4.43;;;2.80;99.90;;;;;;5053893;28;20045;-71
2021/11/27 06:38:56;;;;;;;7.97;3.60;;;2.80;99.90;;;;;;5053228;28;20041;-71
2021/11/27 06:41:23;;;;;;;6.80;4.50;;;2.80;99.90;;;;;;5055544;28;20408;-71
2021/11/27 06:43:50;;;;;;;6.68;4.63;;;2.80;99.90;;;;;;5054849;28;20064;-71
2021/11/27 06:46:17;;;;;;;6.35;4.35;;;2.90;99.90;;;;;;5054291;28;20420;-70
2021/11/27 06:48:44;;;;;;;5.97;4.53;;;2.80;99.90;;;;;;5055108;28;20045;-71
2021/11/27 06:51:12;;;;;;;8.68;4.57;;;2.80;99.90;;;;;;5055461;28;20105;-71
2021/11/27 06:53:39;;;;;;;5.67;4.33;;;2.80;99.90;;;;;;5038518;28;20052;-70
2021/11/27 06:56:06;;;;;;;6.07;4.57;;;2.80;99.90;;;;;;5056757;28;20480;-71
2021/11/27 06:58:33;;;;;;;7.00;4.55;;;2.80;99.90;;;;;;5054221;28;20151;-71
2021/11/27 07:01:00;;;;;;;7.03;4.05;;;2.80;99.90;;;;;;5054206;28;20045;-71
2021/11/27 07:03:28;;;;;;;6.95;4.95;;;2.80;99.90;;;;;;5055041;28;20087;-70
2021/11/27 07:05:55;;;;;;;6.60;4.60;;;2.80;99.90;;;;;;5053934;28;20484;-70
2021/11/27 07:08:22;;;;;;;6.28;5.38;;;2.80;99.90;;;;;;5055570;28;20047;-71
2021/11/27 07:10:50;;;;;;;7.35;4.28;;;2.80;99.90;;;;;;5055616;28;20045;-70
2021/11/27 07:13:18;;;;;;;9.18;5.28;;;2.80;99.90;;;;;;5054503;28;20144;-70
2021/11/27 07:15:47;;;;;;;6.75;5.05;;;2.80;99.90;;;;;;5055419;28;20041;-70
2021/11/27 07:18:14;;;;;;;5.35;4.20;;;2.80;99.90;;;;;;5053996;28;20049;-70
2021/11/27 07:20:41;;;;;;;5.93;4.63;;;2.90;99.90;;;;;;5054200;28;20059;-70
2021/11/27 07:23:09;;;;;;;7.50;4.55;;;2.90;99.90;;;;;;5052986;28;20047;-70
2021/11/27 07:25:37;;;;;;;6.95;4.20;;;2.90;99.90;;;;;;5052321;28;20492;-70
2021/11/27 07:28:05;;;;;;;6.75;4.72;;;3.00;99.90;;;;;;5050805;28;20052;-70
2021/11/27 07:30:33;;;;;;;6.55;5.03;;;2.90;99.90;;;;;;5049852;28;20113;-70
2021/11/27 07:33:00;;;;;;;9.00;5.03;;;2.90;99.90;;;;;;5045867;28;20489;-70
2021/11/27 07:35:27;;;;;;;5.28;4.60;;;3.00;99.90;;;;;;5050854;28;20123;-71
2021/11/27 07:37:54;;;;;;;6.53;4.60;;;3.00;99.90;;;;;;5050032;28;20628;-70
2021/11/27 07:40:22;;;;;;;7.43;4.93;;;3.00;99.90;;;;;;5058518;28;20369;-71
2021/11/27 07:42:52;;;;;;;8.60;5.10;;;3.00;99.90;;;;;;5052284;28;20079;-71
2021/11/27 07:45:20;;;;;;;7.57;5.30;;;3.00;99.90;;;;;;5065706;28;20558;-70
2021/11/27 07:47:47;;;;;;;8.65;4.85;;;3.00;99.90;;;;;;5050547;28;20052;-70
2021/11/27 07:50:14;;;;;;;7.50;5.28;;;3.00;99.90;;;;;;5034901;28;20061;-70
2021/11/27 07:52:41;;;;;;;7.63;4.95;;;3.00;99.90;;;;;;5051856;28;20098;-70
2021/11/27 07:55:08;;;;;;;6.35;5.10;;;3.00;99.90;;;;;;5051529;28;20048;-70
2021/11/27 07:57:35;;;;;;;6.45;4.93;;;3.00;99.90;;;;;;5063470;28;20041;-70
2021/11/27 08:00:04;;;;;;;10.52;5.32;;;3.00;99.90;;;;;;5034670;28;20057;-70
2021/11/27 08:02:31;;;;;;;6.13;4.95;;;3.00;99.90;;;;;;5050865;28;20093;-70
2021/11/27 08:04:57;;;;;;;5.57;4.85;;;3.00;99.90;;;;;;5051436;28;20473;-70
2021/11/27 08:07:24;;;;;;;7.88;5.38;;;3.00;99.90;;;;;;5050485;28;20087;-74
2021/11/27 08:09:51;;;;;;;17.58;11.55;;;3.00;99.90;;;;;;5052747;28;20056;-69
2021/11/27 08:12:18;;;;;;;6.72;5.03;;;3.10;99.90;;;;;;5051981;28;20473;-70
2021/11/27 08:14:45;;;;;;;6.53;5.25;;;3.10;99.90;;;;;;5031097;28;20072;-70
2021/11/27 08:17:12;;;;;;;7.50;5.63;;;3.20;99.90;;;;;;5030600;28;20409;-69
2021/11/27 08:19:39;;;;;;;5.97;4.93;;;3.20;99.90;;;;;;5046094;28;20412;-69
2021/11/27 08:22:06;;;;;;;48.55;34.97;;;3.20;99.90;;;;;;5050789;28;20053;-70
2021/11/27 08:24:33;;;;;;;13.00;9.10;;;3.30;99.90;;;;;;5052155;28;20111;-72
2021/11/27 08:27:00;;;;;;;7.18;6.47;;;3.30;99.90;;;;;;5050973;28;20136;-71
2021/11/27 08:29:27;;;;;;;8.93;5.70;;;3.30;99.90;;;;;;5049949;28;20051;-71
2021/11/27 08:31:54;;;;;;;8.30;5.97;;;3.30;99.90;;;;;;5049436;28;20045;-68
2021/11/27 08:34:21;;;;;;;7.88;6.25;;;3.40;99.90;;;;;;5051692;28;20045;-71
2021/11/27 08:36:48;;;;;;;11.75;6.00;;;3.40;99.90;;;;;;5047245;28;20242;-72
2021/11/27 08:39:16;;;;;;;7.72;5.70;;;3.40;99.90;;;;;;5050302;28;20079;-72
2021/11/27 08:41:43;;;;;;;10.15;5.65;;;3.40;99.90;;;;;;5029128;28;20053;-71
2021/11/27 08:44:10;;;;;;;6.45;4.68;;;3.50;99.90;;;;;;5050179;28;20432;-72
2021/11/27 08:46:37;;;;;;;10.25;5.85;;;3.50;99.90;;;;;;5051515;28;20049;-71
2021/11/27 08:49:04;;;;;;;9.32;4.82;;;3.50;99.90;;;;;;5033359;28;20055;-70
2021/11/27 08:51:36;;;;;;;6.30;4.20;;;3.60;99.90;;;;;;5048918;28;20045;-70
2021/11/27 08:54:04;;;;;;;7.95;4.57;;;3.70;99.90;;;;;;5050413;28;20051;-70
2021/11/27 08:56:31;;;;;;;19.70;5.60;;;3.70;99.90;;;;;;5049292;28;20045;-70
2021/11/27 08:58:58;;;;;;;7.03;3.95;;;3.70;99.90;;;;;;5050252;28;20052;-70
2021/11/27 09:01:25;;;;;;;4.63;2.95;;;3.80;99.90;;;;;;5049830;28;20049;-70
2021/11/27 09:03:52;;;;;;;6.43;2.88;;;3.80;99.90;;;;;;5049651;28;20049;-70
2021/11/27 09:06:19;;;;;;;5.97;3.33;;;3.80;99.90;;;;;;5049657;28;20135;-70
2021/11/27 09:08:46;;;;;;;6.40;3.15;;;3.90;99.90;;;;;;5050533;28;20538;-70
2021/11/27 09:11:14;;;;;;;5.57;2.95;;;3.90;99.90;;;;;;5050673;28;20475;-70
2021/11/27 09:13:42;;;;;;;5.45;2.97;;;3.90;99.90;;;;;;5048646;28;20479;-70
2021/11/27 09:16:09;;;;;;;5.75;2.60;;;4.00;99.90;;;;;;5050407;28;20049;-70
2021/11/27 09:18:56;;;;;;;7.30;3.20;;;4.00;99.90;;;;;;5049289;28;20041;-70
2021/11/27 09:21:23;;;;;;;5.00;2.92;;;4.00;99.90;;;;;;5049252;28;20487;-70
2021/11/27 09:23:50;;;;;;;10.90;2.60;;;4.10;99.90;;;;;;5047359;28;20131;-70
2021/11/27 09:26:17;;;;;;;6.25;2.67;;;4.10;99.90;;;;;;5048444;28;20435;-70
2021/11/27 09:28:44;;;;;;;5.10;2.85;;;4.10;99.90;;;;;;5028758;28;20060;-69
2021/11/27 09:31:11;;;;;;;8.90;3.10;;;4.00;99.90;;;;;;5023523;28;20048;-70
2021/11/27 09:33:38;;;;;;;10.50;3.72;;;4.00;99.90;;;;;;5048322;28;20060;-70
2021/11/27 09:36:07;;;;;;;5.05;3.00;;;4.00;99.90;;;;;;5048601;28;20059;-70
2021/11/27 09:38:35;;;;;;;5.57;2.88;;;4.00;99.90;;;;;;5048411;28;20464;-70
2021/11/27 09:41:11;;;;;;;7.05;3.60;;;3.90;99.90;;;;;;5048639;28;20044;-70
2021/11/27 09:43:38;;;;;;;5.40;3.00;;;3.90;99.90;;;;;;5049306;28;20162;-70
2021/11/27 09:46:08;;;;;;;8.98;3.72;;;4.00;99.90;;;;;;5048640;28;20051;-69
2021/11/27 09:48:36;;;;;;;;;;;4.10;99.90;;;;;;5031012;28;20083;-70
2021/11/27 09:51:03;;;;;;;3.42;2.42;;;4.10;99.90;;;;;;5032332;28;19928;-70
2021/11/27 09:53:31;;;;;;;8.10;3.22;;;4.30;99.90;;;;;;5031391;28;20679;-70
2021/11/27 09:56:01;;;;;;;7.30;2.88;;;4.30;99.90;;;;;;5032182;28;20507;-70
2021/11/27 09:58:29;;;;;;;6.22;2.65;;;4.40;99.90;;;;;;5033285;28;20048;-71
2021/11/27 10:00:57;;;;;;;5.95;3.50;;;4.50;99.90;;;;;;5048146;28;20041;-71
2021/11/27 10:03:25;;;;;;;7.78;2.95;;;4.60;99.90;;;;;;5032581;28;20079;-70
2021/11/27 10:05:52;;;;;;;6.20;2.95;;;4.70;99.90;;;;;;5048462;28;20052;-72
2021/11/27 10:08:19;;;;;;;5.35;2.75;;;4.80;99.90;;;;;;5030168;28;20053;-71
2021/11/27 10:10:46;;;;;;;3.55;2.88;;;4.90;99.90;;;;;;5049458;28;20041;-70
2021/11/27 10:13:19;;;;;;;7.30;3.50;;;5.00;99.90;;;;;;5013305;28;20457;-69
2021/11/27 10:15:46;;;;;;;10.48;3.20;;;5.10;99.90;;;;;;5047702;28;20045;-71
2021/11/27 10:18:23;;;;;;;7.55;3.13;;;5.30;99.90;;;;;;5029940;28;20405;-71
2021/11/27 10:21:13;;;;;;;7.40;2.60;;;5.30;99.90;;;;;;5031669;28;20059;-70
2021/11/27 10:23:40;;;;;;;5.28;3.50;;;5.30;99.90;;;;;;5047457;28;20095;-68
2021/11/27 10:26:07;;;;;;;12.32;6.60;;;5.30;99.90;;;;;;5048055;28;20052;-64
2021/11/27 10:28:36;;;;;;;7.63;3.03;;;5.30;99.90;;;;;;5047114;28;20068;-66
2021/11/27 10:31:03;;;;;;;6.88;2.97;;;5.30;99.90;;;;;;5029275;28;20045;-64
2021/11/27 10:33:37;;;;;;;7.40;3.20;;;5.30;99.90;;;;;;5042793;28;20045;-65
2021/11/27 10:36:06;;;;;;;6.90;3.15;;;5.20;99.90;;;;;;5050347;28;20052;-66
2021/11/27 10:38:40;;;;;;;6.67;3.50;;;5.20;99.90;;;;;;5029937;28;20056;-68
2021/11/27 10:41:07;;;;;;;8.93;3.33;;;5.20;99.90;;;;;;5046701;28;20413;-67
2021/11/27 10:43:34;;;;;;;8.38;3.25;;;5.20;99.90;;;;;;5046217;28;20056;-64
2021/11/27 10:46:32;;;;;;;6.78;3.35;;;5.10;99.90;;;;;;5044906;28;20484;-67
2021/11/27 10:48:59;;;;;;;6.65;2.83;;;5.10;99.90;;;;;;5046760;28;20064;-64
2021/11/27 10:51:26;;;;;;;7.97;3.45;;;5.10;99.90;;;;;;5046004;28;20049;-65
2021/11/27 10:54:01;;;;;;;8.10;2.88;;;5.20;99.90;;;;;;5046848;28;20048;-65
2021/11/27 10:56:47;;;;;;;5.97;2.60;;;5.10;99.90;;;;;;5045794;28;20117;-65
2021/11/27 10:59:15;;;;;;;6.57;2.92;;;5.10;99.90;;;;;;5047459;28;20055;-64
2021/11/27 11:02:08;;;;;;;6.25;2.53;;;5.20;99.90;;;;;;5048367;28;20064;-65
2021/11/27 11:04:36;;;;;;;5.30;2.38;;;5.20;99.90;;;;;;5051379;28;20049;-68
2021/11/27 11:07:17;;;;;;;30.13;16.98;;;5.20;99.90;;;;;;5048886;28;20522;-69
2021/11/27 11:10:10;;;;;;;61.03;42.65;;;5.30;99.90;;;;;;5040258;28;20103;-66
2021/11/27 11:12:54;;;;;;;5.68;3.10;;;5.40;99.90;;;;;;5048614;28;20366;-67
2021/11/27 11:15:25;;;;;;;4.68;3.05;;;5.40;99.90;;;;;;5049230;28;20041;-67
2021/11/27 11:18:08;;;;;;;9.10;2.58;;;5.50;99.90;;;;;;5055289;28;20064;-68
2021/11/27 11:20:36;;;;;;;8.02;2.63;;;5.50;99.90;;;;;;5055956;28;20114;-64
2021/11/27 11:23:06;;;;;;;9.48;2.90;;;5.50;99.90;;;;;;5055838;28;20056;-64
2021/11/27 11:25:35;;;;;;;4.55;2.70;;;5.50;99.90;;;;;;5047414;28;20476;-66
2021/11/27 11:28:13;;;;;;;6.47;2.58;;;5.60;99.90;;;;;;5048561;28;20059;-67
2021/11/27 11:30:40;;;;;;;10.13;2.47;;;5.70;99.90;;;;;;5032627;28;20064;-65
2021/11/27 11:33:11;;;;;;;7.90;2.10;;;5.70;99.90;;;;;;5048105;28;20451;-65
2021/11/27 11:35:38;;;;;;;3.85;1.88;;;5.70;99.90;;;;;;5050468;28;20136;-66
2021/11/27 11:38:10;;;;;;;5.13;2.42;;;5.80;99.90;;;;;;5048701;28;20561;-67
2021/11/27 11:40:39;;;;;;;5.10;2.13;;;5.80;99.90;;;;;;5048497;28;20055;-65
2021/11/27 11:43:06;;;;;;;3.28;1.50;;;5.70;99.90;;;;;;5050290;28;20052;-67
2021/11/27 11:45:33;;;;;;;3.42;1.35;;;5.60;99.90;;;;;;5050074;28;20044;-63
2021/11/27 11:48:00;;;;;;;3.50;1.40;;;5.50;99.90;;;;;;5048729;28;20144;-63
2021/11/27 11:50:42;;;;;;;5.45;4.00;;;5.40;99.90;;;;;;5051638;28;20096;-71
2021/11/27 11:53:29;;;;;;;9.35;5.70;;;5.30;99.90;;;;;;5050751;28;20049;-69
2021/11/27 11:56:03;;;;;;;4.05;1.98;;;5.30;99.90;;;;;;5049985;28;20052;-69
2021/11/27 11:58:37;;;;;;;4.28;1.73;;;5.20;99.90;;;;;;5050876;28;20056;-69
2021/11/27 12:01:21;;;;;;;3.35;1.73;;;5.20;99.90;;;;;;5044739;28;20092;-68
2021/11/27 12:03:49;;;;;;;3.03;1.35;;;5.10;99.90;;;;;;5051064;28;20056;-67
2021/11/27 12:06:32;;;;;;;2.50;1.25;;;5.10;99.90;;;;;;5051329;28;20099;-67
2021/11/27 12:09:01;;;;;;;3.42;1.63;;;5.10;99.90;;;;;;5046067;28;20045;-67
2021/11/27 12:11:51;;;;;;;3.97;1.93;;;5.00;99.90;;;;;;5019871;28;20126;-68
2021/11/27 12:14:22;;;;;;;5.82;1.70;;;5.00;99.90;;;;;;5047734;28;20060;-69
2021/11/27 12:17:03;;;;;;;2.67;1.60;;;5.00;99.90;;;;;;5051204;28;20345;-69
2021/11/27 12:19:40;;;;;;;6.78;1.88;;;5.00;99.90;;;;;;5051648;28;20052;-69
2021/11/27 12:22:22;;;;;;;3.03;2.40;;;5.00;99.90;;;;;;5050058;28;20063;-69
2021/11/27 12:25:28;;;;;;;9.80;1.73;;;5.20;99.90;;;;;;5051471;28;20044;-69
2021/11/27 12:28:04;;;;;;;7.43;1.88;;;5.20;99.90;;;;;;5052322;28;20057;-68
2021/11/27 12:30:44;;;;;;;9.57;2.47;;;5.20;99.90;;;;;;5051566;28;20076;-67
2021/11/27 12:33:48;;;;;;;33.90;20.80;;;5.20;99.90;;;;;;5050937;28;20135;-70
2021/11/27 12:36:25;;;;;;;4.15;2.70;;;5.30;99.90;;;;;;5049200;28;20048;-68
2021/11/27 12:39:19;;;;;;;5.15;2.42;;;5.20;99.90;;;;;;5040167;28;20052;-68
2021/11/27 12:41:49;;;;;;;5.35;2.38;;;5.10;99.90;;;;;;5042492;28;20050;-68
2021/11/27 12:44:28;;;;;;;4.95;2.33;;;5.10;99.90;;;;;;5050558;28;20052;-69
2021/11/27 12:47:00;;;;;;;10.88;2.60;;;5.00;99.90;;;;;;5051757;28;20413;-68
2021/11/27 12:49:30;;;;;;;6.18;2.70;;;5.00;99.90;;;;;;5050113;28;20484;-68
2021/11/27 12:52:19;;;;;;;5.90;2.33;;;5.00;99.90;;;;;;5051426;28;20120;-68
2021/11/27 12:54:52;;;;;;;9.38;2.75;;;5.00;99.90;;;;;;5051805;28;20064;-68
2021/11/27 12:57:28;;;;;;;8.68;3.35;;;4.90;99.90;;;;;;5033876;28;20049;-69
2021/11/27 13:00:16;;;;;;;7.93;3.70;;;4.90;99.90;;;;;;5033910;28;20061;-69
2021/11/27 13:03:03;;;;;;;9.55;2.97;;;5.00;99.90;;;;;;5049858;28;20091;-69
2021/11/27 13:05:35;;;;;;;43.42;26.25;;;5.00;99.90;;;;;;5050075;28;20053;-71
2021/11/27 13:08:04;;;;;;;7.82;2.88;;;5.10;99.90;;;;;;5033119;28;20045;-67
2021/11/27 13:10:32;;;;;;;7.75;2.58;;;5.10;99.90;;;;;;5033657;28;20376;-75